Time;durP1;ratioP1;P1;durP2;ratioP2;P2;SDS_P1;SDS_P2;PMS_P1;PMS_P2;Temp;Humidity;BMP_temperature;BMP_pressure;BME280_temperature;BME280_humidity;BME280_pressure;Samples;Min_cycle;Max_cycle;Signal;HPM_P1;HPM_P2
2022/07/19 00:00:09;;;;;;;3.75;2.38;;;;;;;;;;5049357;28;20033;-74
2022/07/19 00:02:36;;;;;;;3.10;2.40;;;;;;;;;;5049699;28;20033;-75
2022/07/19 00:05:02;;;;;;;4.82;2.20;;;;;;;;;;5049709;28;20161;-74
2022/07/19 00:07:27;;;;;;;5.78;2.30;;;;;;;;;;5050001;28;20541;-77
2022/07/19 00:09:53;;;;;;;5.30;2.38;;;;;;;;;;5049509;28;20464;-73
2022/07/19 00:12:18;;;;;;;2.97;2.05;;;;;;;;;;5049364;28;20103;-74
2022/07/19 00:14:43;;;;;;;5.43;2.40;;;;;;;;;;5049445;28;20098;-74
2022/07/19 00:17:09;;;;;;;3.58;2.30;;;;;;;;;;5049235;28;20021;-75
2022/07/19 00:19:35;;;;;;;4.57;2.25;;;;;;;;;;5049448;28;20036;-73
2022/07/19 00:22:00;;;;;;;3.17;2.20;;;;;;;;;;5048961;28;20029;-74
2022/07/19 00:24:26;;;;;;;4.45;2.30;;;;;;;;;;5048795;28;20052;-75
2022/07/19 00:26:51;;;;;;;4.32;2.00;;;;;;;;;;5049427;28;20068;-74
2022/07/19 00:29:17;;;;;;;3.35;2.08;;;;;;;;;;5049207;28;20036;-74
2022/07/19 00:31:43;;;;;;;4.47;2.28;;;;;;;;;;5048888;28;20648;-73
2022/07/19 00:34:08;;;;;;;3.33;2.10;;;;;;;;;;5049126;28;20499;-75
2022/07/19 00:36:34;;;;;;;5.75;2.17;;;;;;;;;;5048866;28;20060;-75
2022/07/19 00:38:59;;;;;;;3.83;2.45;;;;;;;;;;5047947;28;20085;-74
2022/07/19 00:41:24;;;;;;;4.85;2.28;;;;;;;;;;5048910;28;20414;-73
2022/07/19 00:43:51;;;;;;;4.72;2.40;;;;;;;;;;5048971;28;20059;-73
2022/07/19 00:46:20;;;;;;;5.22;2.28;;;;;;;;;;5049111;28;20032;-73
2022/07/19 00:48:47;;;;;;;5.43;2.30;;;;;;;;;;5048877;28;20104;-73
2022/07/19 00:51:15;;;;;;;5.18;2.10;;;;;;;;;;5048413;28;20025;-75
2022/07/19 00:53:41;;;;;;;5.18;2.30;;;;;;;;;;5047462;28;20028;-74
2022/07/19 00:56:09;;;;;;;4.50;2.40;;;;;;;;;;5048878;28;20025;-74
2022/07/19 00:58:35;;;;;;;3.72;2.42;;;;;;;;;;5048755;28;20025;-75
2022/07/19 01:01:02;;;;;;;5.50;2.17;;;;;;;;;;5048314;28;20052;-74
2022/07/19 01:03:28;;;;;;;4.13;2.40;;;;;;;;;;5048761;28;20044;-75
2022/07/19 01:05:54;;;;;;;3.25;2.30;;;;;;;;;;5048618;28;20104;-74
2022/07/19 01:08:19;;;;;;;4.43;2.40;;;;;;;;;;5048491;28;20387;-75
2022/07/19 01:10:45;;;;;;;3.38;2.47;;;;;;;;;;5048356;28;20054;-73
2022/07/19 01:13:14;;;;;;;4.80;2.47;;;;;;;;;;5048553;28;20108;-73
2022/07/19 01:15:42;;;;;;;9.20;2.63;;;;;;;;;;5048609;28;20039;-74
2022/07/19 01:18:09;;;;;;;5.13;2.35;;;;;;;;;;5048658;28;20029;-73
2022/07/19 01:20:34;;;;;;;3.80;2.30;;;;;;;;;;5048171;28;20017;-72
2022/07/19 01:23:00;;;;;;;3.28;2.20;;;;;;;;;;5048239;28;20082;-73
2022/07/19 01:25:31;;;;;;;4.80;2.78;;;;;;;;;;5048371;28;20025;-73
2022/07/19 01:27:57;;;;;;;6.65;2.42;;;;;;;;;;5048285;28;20021;-74
2022/07/19 01:30:25;;;;;;;3.88;2.47;;;;;;;;;;5048206;28;20033;-73
2022/07/19 01:32:51;;;;;;;5.70;2.55;;;;;;;;;;5048145;28;20082;-74
2022/07/19 01:35:17;;;;;;;4.65;2.38;;;;;;;;;;5047293;28;20567;-74
2022/07/19 01:37:43;;;;;;;4.15;2.58;;;;;;;;;;5048124;28;20028;-74
2022/07/19 01:40:11;;;;;;;3.05;2.50;;;;;;;;;;5048123;28;20037;-76
2022/07/19 01:42:37;;;;;;;6.10;2.65;;;;;;;;;;5047870;28;20025;-75
2022/07/19 01:45:04;;;;;;;6.13;2.53;;;;;;;;;;5047984;28;20054;-73
2022/07/19 01:47:30;;;;;;;5.90;2.60;;;;;;;;;;5047840;28;20108;-73
2022/07/19 01:49:55;;;;;;;3.80;2.80;;;;;;;;;;5048036;28;20303;-73
2022/07/19 01:52:21;;;;;;;6.38;2.80;;;;;;;;;;5047827;28;20078;-73
2022/07/19 01:54:46;;;;;;;6.30;3.00;;;;;;;;;;5047966;28;20033;-73
2022/07/19 01:57:12;;;;;;;6.85;2.92;;;;;;;;;;5047828;28;20029;-73
2022/07/19 01:59:38;;;;;;;5.50;2.70;;;;;;;;;;5047682;28;20060;-73
2022/07/19 02:02:04;;;;;;;4.70;2.70;;;;;;;;;;5047342;28;20420;-72
2022/07/19 02:04:29;;;;;;;6.30;3.00;;;;;;;;;;5047989;28;20037;-72
2022/07/19 02:06:55;;;;;;;3.85;2.65;;;;;;;;;;5047782;28;20080;-73
2022/07/19 02:09:20;;;;;;;4.07;2.85;;;;;;;;;;5047781;28;20116;-76
2022/07/19 02:11:46;;;;;;;4.03;2.92;;;;;;;;;;5047598;28;20061;-76
2022/07/19 02:14:11;;;;;;;6.13;2.88;;;;;;;;;;5047705;28;20021;-76
2022/07/19 02:16:38;;;;;;;5.40;3.25;;;;;;;;;;5047511;28;20033;-76
2022/07/19 02:19:04;;;;;;;3.45;2.85;;;;;;;;;;5047407;28;20437;-74
2022/07/19 02:21:30;;;;;;;4.10;3.03;;;;;;;;;;5047115;28;20040;-74
2022/07/19 02:23:56;;;;;;;4.50;3.10;;;;;;;;;;5047595;28;20081;-75
2022/07/19 02:26:21;;;;;;;4.82;3.00;;;;;;;;;;5047602;28;20029;-76
2022/07/19 02:28:47;;;;;;;6.40;3.15;;;;;;;;;;5047528;28;20032;-77
2022/07/19 02:31:12;;;;;;;7.35;3.05;;;;;;;;;;5047321;28;20040;-76
2022/07/19 02:33:38;;;;;;;4.72;3.00;;;;;;;;;;5047318;28;20037;-77
2022/07/19 02:36:04;;;;;;;6.20;3.10;;;;;;;;;;5046950;28;20029;-77
2022/07/19 02:38:30;;;;;;;3.78;2.97;;;;;;;;;;5047274;28;20104;-77
2022/07/19 02:40:55;;;;;;;7.07;3.30;;;;;;;;;;5047217;28;20029;-76
2022/07/19 02:43:21;;;;;;;6.30;3.50;;;;;;;;;;5047160;28;20066;-74
2022/07/19 02:45:46;;;;;;;5.05;3.30;;;;;;;;;;5047171;28;20112;-77
2022/07/19 02:48:12;;;;;;;6.25;3.40;;;;;;;;;;5047045;28;20037;-75
2022/07/19 02:50:37;;;;;;;6.60;3.20;;;;;;;;;;5047007;28;20060;-76
2022/07/19 02:53:02;;;;;;;8.30;3.30;;;;;;;;;;5046725;28;20031;-77
2022/07/19 02:55:28;;;;;;;4.93;3.60;;;;;;;;;;5046888;28;20033;-74
2022/07/19 02:57:53;;;;;;;6.65;3.42;;;;;;;;;;5047123;28;20029;-77
2022/07/19 03:00:19;;;;;;;6.68;3.58;;;;;;;;;;5046461;28;20136;-76
2022/07/19 03:02:45;;;;;;;5.95;3.50;;;;;;;;;;5046765;28;20546;-75
2022/07/19 03:05:10;;;;;;;5.40;3.50;;;;;;;;;;5047397;28;20029;-76
2022/07/19 03:07:36;;;;;;;4.57;3.47;;;;;;;;;;5046716;28;20119;-77
2022/07/19 03:10:01;;;;;;;7.70;4.13;;;;;;;;;;5046913;28;20072;-75
2022/07/19 03:12:27;;;;;;;6.45;3.67;;;;;;;;;;5046640;28;20029;-74
2022/07/19 03:14:52;;;;;;;5.88;3.80;;;;;;;;;;5046823;28;20029;-73
2022/07/19 03:17:18;;;;;;;5.05;3.80;;;;;;;;;;5046865;28;20052;-77
2022/07/19 03:19:43;;;;;;;5.00;3.75;;;;;;;;;;5046902;28;20033;-76
2022/07/19 03:22:08;;;;;;;7.80;3.97;;;;;;;;;;5046491;28;20045;-76
2022/07/19 03:24:34;;;;;;;5.80;3.50;;;;;;;;;;5046610;28;20025;-74
2022/07/19 03:26:59;;;;;;;5.63;3.63;;;;;;;;;;5046555;28;20030;-77
2022/07/19 03:29:25;;;;;;;6.30;3.65;;;;;;;;;;5046474;28;20029;-76
2022/07/19 03:31:50;;;;;;;6.25;3.90;;;;;;;;;;5046394;28;20035;-74
2022/07/19 03:34:16;;;;;;;4.82;3.63;;;;;;;;;;5046632;28;20068;-76
2022/07/19 03:36:41;;;;;;;5.45;3.80;;;;;;;;;;5046520;28;20549;-76
2022/07/19 03:39:07;;;;;;;6.57;3.80;;;;;;;;;;5046746;28;20029;-75
2022/07/19 03:41:32;;;;;;;7.03;3.33;;;;;;;;;;5046211;28;20029;-74
2022/07/19 03:43:58;;;;;;;6.18;4.07;;;;;;;;;;5046430;28;20453;-74
2022/07/19 03:46:23;;;;;;;5.78;3.60;;;;;;;;;;5046154;28;20045;-76
2022/07/19 03:48:48;;;;;;;6.72;3.80;;;;;;;;;;5046249;28;20408;-75
2022/07/19 03:51:14;;;;;;;6.38;3.50;;;;;;;;;;5046375;28;20116;-74
2022/07/19 03:53:40;;;;;;;4.30;3.58;;;;;;;;;;5046237;28;20040;-74
2022/07/19 03:56:05;;;;;;;6.45;3.60;;;;;;;;;;5046523;28;20025;-75
2022/07/19 03:58:31;;;;;;;7.38;3.80;;;;;;;;;;5048019;28;20025;-74
2022/07/19 04:00:57;;;;;;;6.03;3.75;;;;;;;;;;5049137;28;20049;-74
2022/07/19 04:03:22;;;;;;;5.07;3.83;;;;;;;;;;5049393;28;20033;-74
2022/07/19 04:05:47;;;;;;;6.93;3.50;;;;;;;;;;5049571;28;20044;-74
2022/07/19 04:08:14;;;;;;;5.10;3.65;;;;;;;;;;5049530;27;20387;-76
2022/07/19 04:10:40;;;;;;;4.80;3.63;;;;;;;;;;5049723;28;20028;-74
2022/07/19 04:13:05;;;;;;;4.88;3.50;;;;;;;;;;5049658;28;20025;-74
2022/07/19 04:15:31;;;;;;;5.53;3.63;;;;;;;;;;5049727;28;20028;-75
2022/07/19 04:17:56;;;;;;;7.57;3.60;;;;;;;;;;5048096;28;20025;-77
2022/07/19 04:20:22;;;;;;;6.22;3.60;;;;;;;;;;5049511;28;20491;-77
2022/07/19 04:22:47;;;;;;;5.45;3.20;;;;;;;;;;5049141;28;20049;-76
2022/07/19 04:25:13;;;;;;;5.32;3.72;;;;;;;;;;5049380;28;20483;-77
2022/07/19 04:27:38;;;;;;;5.03;3.40;;;;;;;;;;5049388;28;20396;-77
2022/07/19 04:30:04;;;;;;;4.80;3.35;;;;;;;;;;5049424;28;20113;-77
2022/07/19 04:32:31;;;;;;;6.78;3.80;;;;;;;;;;5049226;28;20052;-78
2022/07/19 04:34:56;;;;;;;5.55;3.47;;;;;;;;;;5049478;28;20028;-77
2022/07/19 04:37:22;;;;;;;5.03;3.42;;;;;;;;;;5049234;28;20032;-77
2022/07/19 04:39:47;;;;;;;5.53;3.70;;;;;;;;;;5049158;28;20025;-78
2022/07/19 04:42:12;;;;;;;5.82;3.60;;;;;;;;;;5047535;28;20066;-77
2022/07/19 04:44:38;;;;;;;8.40;3.70;;;;;;;;;;5049204;28;20115;-77
2022/07/19 04:47:03;;;;;;;5.32;3.55;;;;;;;;;;5049198;28;20116;-75
2022/07/19 04:49:29;;;;;;;4.95;3.25;;;;;;;;;;5048998;28;20039;-74
2022/07/19 04:51:54;;;;;;;4.85;3.50;;;;;;;;;;5048556;28;20033;-73
2022/07/19 04:54:19;;;;;;;6.22;3.58;;;;;;;;;;5048824;28;20039;-74
2022/07/19 04:56:45;;;;;;;5.93;3.25;;;;;;;;;;5048772;28;20025;-73
2022/07/19 04:59:10;;;;;;;5.03;3.50;;;;;;;;;;5048724;28;20033;-74
2022/07/19 05:01:36;;;;;;;4.95;3.45;;;;;;;;;;5048433;28;20461;-73
2022/07/19 05:04:02;;;;;;;8.23;3.60;;;;;;;;;;5048833;28;20108;-73
2022/07/19 05:06:27;;;;;;;5.43;3.50;;;;;;;;;;5048809;28;20033;-73
2022/07/19 05:08:53;;;;;;;6.93;3.40;;;;;;;;;;5048735;28;20029;-74
2022/07/19 05:11:19;;;;;;;6.30;3.45;;;;;;;;;;5047319;28;20033;-72
2022/07/19 05:13:45;;;;;;;8.73;3.53;;;;;;;;;;5048247;28;20112;-73
2022/07/19 05:16:10;;;;;;;8.18;3.47;;;;;;;;;;5048372;28;20165;-73
2022/07/19 05:18:36;;;;;;;5.25;3.20;;;;;;;;;;5048603;28;20040;-72
2022/07/19 05:21:01;;;;;;;4.28;3.30;;;;;;;;;;5048371;28;20036;-73
2022/07/19 05:23:27;;;;;;;5.75;3.38;;;;;;;;;;5048373;28;20033;-73
2022/07/19 05:25:52;;;;;;;4.45;3.30;;;;;;;;;;5048288;28;20476;-73
2022/07/19 05:28:17;;;;;;;6.57;3.25;;;;;;;;;;5048380;28;20609;-73
2022/07/19 05:30:43;;;;;;;5.97;3.60;;;;;;;;;;5048108;28;20468;-74
2022/07/19 05:33:09;;;;;;;5.07;3.40;;;;;;;;;;5048063;28;20025;-75
2022/07/19 05:35:34;;;;;;;5.65;3.83;;;;;;;;;;5048094;28;20028;-74
2022/07/19 05:37:59;;;;;;;6.60;3.60;;;;;;;;;;5046868;28;20457;-73
2022/07/19 05:40:25;;;;;;;6.35;3.60;;;;;;;;;;5048144;28;20036;-73
2022/07/19 05:42:50;;;;;;;8.35;3.85;;;;;;;;;;5047862;28;20123;-74
2022/07/19 05:45:16;;;;;;;5.50;3.60;;;;;;;;;;5048052;28;20033;-74
2022/07/19 05:47:41;;;;;;;6.18;3.50;;;;;;;;;;5047976;28;20036;-73
2022/07/19 05:50:07;;;;;;;4.47;3.50;;;;;;;;;;5047828;28;20025;-73
2022/07/19 05:52:32;;;;;;;6.85;3.50;;;;;;;;;;5046266;28;20029;-73
2022/07/19 05:54:58;;;;;;;4.57;3.50;;;;;;;;;;5048166;28;20037;-75
2022/07/19 05:57:23;;;;;;;6.00;3.47;;;;;;;;;;5047831;28;20028;-74
2022/07/19 05:59:49;;;;;;;5.32;3.50;;;;;;;;;;5047679;28;20465;-73
2022/07/19 06:02:14;;;;;;;5.82;3.70;;;;;;;;;;5047338;28;20045;-74
2022/07/19 06:04:40;;;;;;;8.85;3.28;;;;;;;;;;5047734;28;20021;-74
2022/07/19 06:07:05;;;;;;;5.70;3.67;;;;;;;;;;5047571;28;20024;-75
2022/07/19 06:09:31;;;;;;;8.45;3.40;;;;;;;;;;5047660;28;20029;-73
2022/07/19 06:11:56;;;;;;;6.63;3.42;;;;;;;;;;5047751;28;20111;-73
2022/07/19 06:14:22;;;;;;;6.88;3.60;;;;;;;;;;5047475;28;20025;-72
2022/07/19 06:16:47;;;;;;;7.90;3.72;;;;;;;;;;5047653;28;20507;-72
2022/07/19 06:19:13;;;;;;;6.82;3.60;;;;;;;;;;5047676;28;20029;-74
2022/07/19 06:21:38;;;;;;;9.48;3.60;;;;;;;;;;5046761;28;20166;-73
2022/07/19 06:24:04;;;;;;;6.50;3.60;;;;;;;;;;5046964;27;20058;-73
2022/07/19 06:26:30;;;;;;;22.48;4.00;;;;;;;;;;5047364;28;20099;-73
2022/07/19 06:28:55;;;;;;;8.18;3.58;;;;;;;;;;5047364;28;20036;-72
2022/07/19 06:31:21;;;;;;;5.25;3.65;;;;;;;;;;5047437;28;20040;-72
2022/07/19 06:33:48;;;;;;;8.85;3.80;;;;;;;;;;5047255;28;20117;-75
2022/07/19 06:36:14;;;;;;;12.57;3.85;;;;;;;;;;5047440;28;20120;-74
2022/07/19 06:38:41;;;;;;;9.45;3.80;;;;;;;;;;5047337;28;20125;-74
2022/07/19 06:41:06;;;;;;;6.15;3.70;;;;;;;;;;5047139;28;20052;-73
2022/07/19 06:43:32;;;;;;;9.27;3.50;;;;;;;;;;5047051;28;20497;-73
2022/07/19 06:45:57;;;;;;;5.35;3.63;;;;;;;;;;5047202;28;20021;-77
2022/07/19 06:48:23;;;;;;;6.50;3.70;;;;;;;;;;5047066;28;20056;-73
2022/07/19 06:50:48;;;;;;;4.47;3.50;;;;;;;;;;5047233;28;20108;-73
2022/07/19 06:53:14;;;;;;;6.95;3.60;;;;;;;;;;5045515;28;20039;-72
2022/07/19 06:55:39;;;;;;;6.32;3.70;;;;;;;;;;5047004;28;20062;-72
2022/07/19 06:58:04;;;;;;;8.05;3.85;;;;;;;;;;5045663;28;20025;-72
2022/07/19 07:00:30;;;;;;;5.22;3.80;;;;;;;;;;5046470;28;20076;-72
2022/07/19 07:02:56;;;;;;;9.82;3.65;;;;;;;;;;5046836;28;20036;-72
2022/07/19 07:05:21;;;;;;;7.13;4.00;;;;;;;;;;5046926;28;20025;-72
2022/07/19 07:07:48;;;;;;;6.20;3.50;;;;;;;;;;5046753;28;20507;-73
2022/07/19 07:10:14;;;;;;;10.45;3.85;;;;;;;;;;5047032;28;20048;-74
2022/07/19 07:12:40;;;;;;;4.85;3.60;;;;;;;;;;5046638;28;20056;-73
2022/07/19 07:15:06;;;;;;;8.02;3.90;;;;;;;;;;5046432;28;20045;-75
2022/07/19 07:17:32;;;;;;;8.20;3.55;;;;;;;;;;5046728;28;20480;-73
2022/07/19 07:19:57;;;;;;;5.20;3.70;;;;;;;;;;5046806;28;20073;-75
2022/07/19 07:22:23;;;;;;;7.70;3.78;;;;;;;;;;5045164;28;20059;-73
2022/07/19 07:24:48;;;;;;;7.00;3.70;;;;;;;;;;5046507;28;20025;-73
2022/07/19 07:27:14;;;;;;;5.63;3.60;;;;;;;;;;5046869;28;20473;-74
2022/07/19 07:29:39;;;;;;;6.85;3.65;;;;;;;;;;5046750;28;20032;-76
2022/07/19 07:32:05;;;;;;;5.72;3.53;;;;;;;;;;5046514;28;20104;-75
2022/07/19 07:34:31;;;;;;;6.75;3.88;;;;;;;;;;5049561;28;20021;-76
2022/07/19 07:36:56;;;;;;;7.68;3.55;;;;;;;;;;5049835;28;20056;-77
2022/07/19 07:39:21;;;;;;;6.50;3.60;;;;;;;;;;5048718;28;20651;-76
2022/07/19 07:41:47;;;;;;;7.70;4.00;;;;;;;;;;5050004;28;20040;-73
2022/07/19 07:44:12;;;;;;;4.18;3.63;;;;;;;;;;5049904;28;20021;-74
2022/07/19 07:46:38;;;;;;;5.57;3.80;;;;;;;;;;5050031;28;20430;-72
2022/07/19 07:49:03;;;;;;;5.43;3.55;;;;;;;;;;5049837;28;20036;-75
2022/07/19 07:51:29;;;;;;;7.03;3.85;;;;;;;;;;5049496;28;20045;-74
2022/07/19 07:53:55;;;;;;;6.22;3.65;;;;;;;;;;5048330;28;20499;-74
2022/07/19 07:56:21;;;;;;;6.80;3.90;;;;;;;;;;5048416;28;20085;-73
2022/07/19 07:58:46;;;;;;;4.60;3.55;;;;;;;;;;5049695;28;20457;-73
2022/07/19 08:01:12;;;;;;;12.45;3.80;;;;;;;;;;5049319;28;20415;-73
2022/07/19 08:03:37;;;;;;;7.68;3.90;;;;;;;;;;5049555;28;20045;-75
2022/07/19 08:06:03;;;;;;;6.80;3.72;;;;;;;;;;5048391;28;20033;-73
2022/07/19 08:08:28;;;;;;;12.68;4.07;;;;;;;;;;5049837;28;20104;-74
2022/07/19 08:10:54;;;;;;;8.07;3.70;;;;;;;;;;5049325;28;20503;-73
2022/07/19 08:13:21;;;;;;;7.32;3.88;;;;;;;;;;5049354;28;20036;-73
2022/07/19 08:15:46;;;;;;;7.50;3.80;;;;;;;;;;5049362;28;20491;-73
2022/07/19 08:18:12;;;;;;;6.07;3.88;;;;;;;;;;5048293;28;20518;-74
2022/07/19 08:20:37;;;;;;;5.32;3.90;;;;;;;;;;5049408;28;20577;-72
2022/07/19 08:23:03;;;;;;;7.38;4.32;;;;;;;;;;5049025;28;20036;-75
2022/07/19 08:25:28;;;;;;;6.95;4.15;;;;;;;;;;5049072;28;20055;-75
2022/07/19 08:27:54;;;;;;;8.23;4.13;;;;;;;;;;5049141;28;20024;-74
2022/07/19 08:30:19;;;;;;;6.68;3.80;;;;;;;;;;5049297;28;20059;-74
2022/07/19 08:32:44;;;;;;;6.55;4.00;;;;;;;;;;5049270;28;20053;-73
2022/07/19 08:35:10;;;;;;;6.00;3.95;;;;;;;;;;5049242;28;20036;-74
2022/07/19 08:37:36;;;;;;;7.88;4.15;;;;;;;;;;5049128;28;20013;-74
2022/07/19 08:40:04;;;;;;;10.38;4.05;;;;;;;;;;5049054;28;20028;-73
2022/07/19 08:42:29;;;;;;;7.13;4.20;;;;;;;;;;5049012;28;20411;-74
2022/07/19 08:44:59;;;;;;;8.45;4.05;;;;;;;;;;5048447;28;20487;-74
2022/07/19 08:47:26;;;;;;;9.15;4.30;;;;;;;;;;5048931;28;20073;-75
2022/07/19 08:49:51;;;;;;;7.15;3.72;;;;;;;;;;5048884;28;20469;-73
2022/07/19 08:52:18;;;;;;;10.00;4.32;;;;;;;;;;5048783;28;20026;-73
2022/07/19 08:54:44;;;;;;;8.65;4.40;;;;;;;;;;5048684;28;20081;-73
2022/07/19 08:59:54;;;;;;;6.55;4.30;;;;;;;;;;5048702;28;20062;-72
2022/07/19 09:02:19;;;;;;;6.15;4.07;;;;;;;;;;5048384;28;20425;-74
2022/07/19 09:05:07;;;;;;;9.00;4.63;;;;;;;;;;5048408;28;20057;-72
2022/07/19 09:07:35;;;;;;;11.65;4.43;;;;;;;;;;5048475;28;20028;-72
2022/07/19 09:10:17;;;;;;;8.07;4.07;;;;;;;;;;5048598;28;20040;-74
2022/07/19 09:13:09;;;;;;;9.07;4.10;;;;;;;;;;5048733;28;20040;-72
2022/07/19 09:15:42;;;;;;;9.32;4.25;;;;;;;;;;5048251;28;20029;-75
2022/07/19 09:18:22;;;;;;;7.53;4.20;;;;;;;;;;5048468;28;20484;-74
2022/07/19 09:20:50;;;;;;;6.50;4.18;;;;;;;;;;5048328;28;20021;-75
2022/07/19 09:23:16;;;;;;;10.48;4.30;;;;;;;;;;5048293;28;20488;-75
2022/07/19 09:25:46;;;;;;;11.30;4.47;;;;;;;;;;5048103;28;20033;-75
2022/07/19 09:28:12;;;;;;;6.35;4.00;;;;;;;;;;5048453;28;20029;-74
2022/07/19 09:30:41;;;;;;;7.38;4.05;;;;;;;;;;5048463;28;20033;-75
2022/07/19 09:33:18;;;;;;;6.60;4.30;;;;;;;;;;5048294;28;20032;-77
2022/07/19 09:36:11;;;;;;;7.78;4.15;;;;;;;;;;5047933;28;20033;-74
2022/07/19 09:38:45;;;;;;;6.13;4.25;;;;;;;;;;5047916;28;20028;-75
2022/07/19 09:41:15;;;;;;;6.70;3.97;;;;;;;;;;5048172;28;20040;-74
2022/07/19 09:43:52;;;;;;;8.32;4.53;;;;;;;;;;5047891;28;20154;-75
2022/07/19 09:46:27;;;;;;;7.05;4.30;;;;;;;;;;5048310;28;20032;-74
2022/07/19 09:48:52;;;;;;;5.93;3.83;;;;;;;;;;5047888;28;20048;-73
2022/07/19 09:51:18;;;;;;;5.78;3.78;;;;;;;;;;5047891;28;20059;-74
2022/07/19 09:53:43;;;;;;;7.25;3.83;;;;;;;;;;5047694;28;20066;-73
2022/07/19 09:56:10;;;;;;;7.70;4.10;;;;;;;;;;5045821;28;20061;-74
2022/07/19 09:58:36;;;;;;;6.38;3.90;;;;;;;;;;5047932;28;20029;-74
2022/07/19 10:01:02;;;;;;;7.45;4.10;;;;;;;;;;5047501;28;20049;-73
2022/07/19 10:03:27;;;;;;;10.25;4.63;;;;;;;;;;5047891;28;20081;-74
2022/07/19 10:05:54;;;;;;;7.20;3.97;;;;;;;;;;5047567;28;20035;-74
2022/07/19 10:08:20;;;;;;;10.82;4.50;;;;;;;;;;5047886;28;20029;-76
2022/07/19 10:10:45;;;;;;;7.85;4.20;;;;;;;;;;5047680;28;20036;-74
2022/07/19 10:13:11;;;;;;;4.93;3.90;;;;;;;;;;5047454;28;20036;-74
2022/07/19 10:15:41;;;;;;;10.38;4.28;;;;;;;;;;5047507;28;20100;-75
2022/07/19 10:18:15;;;;;;;7.18;4.07;;;;;;;;;;5047670;28;20108;-75
2022/07/19 10:20:46;;;;;;;6.07;4.00;;;;;;;;;;5047587;28;20109;-75
2022/07/19 10:23:12;;;;;;;5.63;4.05;;;;;;;;;;5047700;28;20021;-74
2022/07/19 10:25:46;;;;;;;8.00;4.38;;;;;;;;;;5047184;28;20028;-75
2022/07/19 10:28:34;;;;;;;4.85;3.90;;;;;;;;;;5047619;28;20036;-75
2022/07/19 10:31:00;;;;;;;7.97;4.10;;;;;;;;;;5047408;28;20040;-74
2022/07/19 10:33:32;;;;;;;6.63;4.20;;;;;;;;;;5047381;28;20025;-75
2022/07/19 10:35:58;;;;;;;4.78;3.65;;;;;;;;;;5047145;28;20117;-74
2022/07/19 10:38:23;;;;;;;5.38;4.00;;;;;;;;;;5047519;28;20165;-74
2022/07/19 10:40:58;;;;;;;8.18;4.32;;;;;;;;;;5047141;28;20495;-74
2022/07/19 10:43:25;;;;;;;9.73;4.05;;;;;;;;;;5047499;28;20028;-72
2022/07/19 10:45:56;;;;;;;7.22;4.07;;;;;;;;;;5047188;28;20108;-74
2022/07/19 10:48:35;;;;;;;7.20;4.30;;;;;;;;;;5046957;28;20544;-74
2022/07/19 10:51:01;;;;;;;6.65;4.32;;;;;;;;;;5047265;28;20021;-74
2022/07/19 10:53:41;;;;;;;9.23;4.13;;;;;;;;;;5047206;28;20033;-73
2022/07/19 10:56:17;;;;;;;8.90;4.40;;;;;;;;;;5046906;28;20488;-74
2022/07/19 10:58:57;;;;;;;6.03;3.90;;;;;;;;;;5047098;28;20514;-74
2022/07/19 11:01:24;;;;;;;8.13;4.15;;;;;;;;;;5046592;27;20431;-74
2022/07/19 11:03:51;;;;;;;8.50;4.32;;;;;;;;;;5046802;28;20173;-73
2022/07/19 11:06:24;;;;;;;9.02;4.50;;;;;;;;;;5046425;28;20480;-73
2022/07/19 11:08:56;;;;;;;7.43;4.20;;;;;;;;;;5050593;28;20025;-73
2022/07/19 11:11:23;;;;;;;6.03;4.10;;;;;;;;;;5050444;28;20073;-72
2022/07/19 11:13:54;;;;;;;8.63;4.30;;;;;;;;;;5050440;28;20021;-72
2022/07/19 11:16:20;;;;;;;8.05;4.28;;;;;;;;;;5050185;28;20113;-72
2022/07/19 11:18:46;;;;;;;7.47;4.15;;;;;;;;;;5050320;28;20037;-73
2022/07/19 11:21:13;;;;;;;7.68;4.50;;;;;;;;;;5050026;28;20029;-72
2022/07/19 11:23:39;;;;;;;7.30;4.22;;;;;;;;;;5050126;28;20025;-73
2022/07/19 11:26:06;;;;;;;10.05;4.25;;;;;;;;;;5049919;28;20056;-73
2022/07/19 11:28:32;;;;;;;6.22;4.15;;;;;;;;;;5050225;28;20061;-73
2022/07/19 11:30:57;;;;;;;5.65;4.20;;;;;;;;;;5050101;28;20437;-72
2022/07/19 11:33:23;;;;;;;7.38;3.95;;;;;;;;;;5050276;28;20033;-74
2022/07/19 11:36:06;;;;;;;8.32;4.40;;;;;;;;;;5049735;28;20028;-74
2022/07/19 11:38:35;;;;;;;7.95;4.45;;;;;;;;;;5049884;28;20025;-74
2022/07/19 11:41:00;;;;;;;6.68;4.30;;;;;;;;;;5049817;28;20177;-74
2022/07/19 11:43:26;;;;;;;7.38;4.47;;;;;;;;;;5048596;28;20610;-76
2022/07/19 11:45:51;;;;;;;6.75;4.40;;;;;;;;;;5049947;28;20024;-76
2022/07/19 11:48:28;;;;;;;9.77;4.20;;;;;;;;;;5049847;28;20655;-74
2022/07/19 11:51:10;;;;;;;8.10;4.10;;;;;;;;;;5049934;28;20032;-75
2022/07/19 11:53:38;;;;;;;6.50;3.60;;;;;;;;;;5049763;28;20139;-75
2022/07/19 11:56:05;;;;;;;5.75;3.92;;;;;;;;;;5049465;28;20025;-72
2022/07/19 11:58:32;;;;;;;7.75;3.88;;;;;;;;;;5049605;28;20081;-72
2022/07/19 12:01:05;;;;;;;7.40;4.00;;;;;;;;;;5049497;28;20049;-73
2022/07/19 12:03:30;;;;;;;8.43;3.80;;;;;;;;;;5049654;28;20029;-72
2022/07/19 12:06:04;;;;;;;5.43;3.80;;;;;;;;;;5048117;28;20089;-73
2022/07/19 12:08:41;;;;;;;9.40;3.60;;;;;;;;;;5048313;28;20029;-72
2022/07/19 12:11:21;;;;;;;5.82;3.85;;;;;;;;;;5049527;28;20029;-72
2022/07/19 12:13:48;;;;;;;5.35;3.67;;;;;;;;;;5049322;28;20052;-72
2022/07/19 12:16:13;;;;;;;5.72;3.45;;;;;;;;;;5047781;28;20025;-75
2022/07/19 12:18:54;;;;;;;7.55;3.92;;;;;;;;;;5048617;28;20036;-75
2022/07/19 12:21:24;;;;;;;5.63;3.83;;;;;;;;;;5049211;28;20033;-73
2022/07/19 12:24:25;;;;;;;;;;;;;;;;;;5049773;28;20108;-74
2022/07/19 12:26:59;;;;;;;5.88;3.63;;;;;;;;;;5069754;28;20022;-74
2022/07/19 12:29:25;;;;;;;5.55;3.80;;;;;;;;;;5048148;28;20049;-74
2022/07/19 12:31:54;;;;;;;8.93;3.90;;;;;;;;;;5049108;28;20155;-74
2022/07/19 12:34:20;;;;;;;5.25;3.65;;;;;;;;;;5049081;28;20063;-74
2022/07/19 12:36:46;;;;;;;6.15;3.95;;;;;;;;;;5048814;28;20060;-75
2022/07/19 12:39:20;;;;;;;6.97;3.92;;;;;;;;;;5049338;28;20111;-76
2022/07/19 12:41:53;;;;;;;9.70;4.00;;;;;;;;;;5049105;28;20472;-74
2022/07/19 12:44:18;;;;;;;8.30;3.83;;;;;;;;;;5048919;28;20116;-73
2022/07/19 12:46:44;;;;;;;6.95;3.60;;;;;;;;;;5048840;28;20100;-74
2022/07/19 12:49:10;;;;;;;7.35;3.78;;;;;;;;;;5048769;28;20125;-73
2022/07/19 12:51:35;;;;;;;5.15;3.80;;;;;;;;;;5048837;28;20061;-74
2022/07/19 12:54:00;;;;;;;4.20;3.60;;;;;;;;;;5048922;28;20029;-74
2022/07/19 12:56:26;;;;;;;6.50;3.85;;;;;;;;;;5048664;28;20380;-76
2022/07/19 13:01:35;;;;;;;6.03;3.92;;;;;;;;;;5048285;28;20064;-78
2022/07/19 13:04:01;;;;;;;5.35;3.80;;;;;;;;;;5048742;28;20025;-76
2022/07/19 13:06:26;;;;;;;7.18;3.85;;;;;;;;;;5048239;28;20108;-77
2022/07/19 13:08:51;;;;;;;6.03;4.10;;;;;;;;;;5048510;28;20055;-78
2022/07/19 13:11:17;;;;;;;6.25;4.18;;;;;;;;;;5048678;28;20027;-76
2022/07/19 13:13:42;;;;;;;6.72;4.00;;;;;;;;;;5048614;28;20021;-77
2022/07/19 13:16:08;;;;;;;10.57;4.30;;;;;;;;;;5048541;28;20112;-75
2022/07/19 13:18:34;;;;;;;6.38;3.53;;;;;;;;;;5048708;28;20021;-74
2022/07/19 13:20:59;;;;;;;7.35;3.78;;;;;;;;;;5048315;28;20072;-74
2022/07/19 13:23:25;;;;;;;6.82;3.75;;;;;;;;;;5048385;28;20033;-77
2022/07/19 13:25:50;;;;;;;6.93;3.80;;;;;;;;;;5048268;28;20472;-74
2022/07/19 13:28:16;;;;;;;10.00;3.80;;;;;;;;;;5048333;28;20066;-75
2022/07/19 13:30:41;;;;;;;8.15;3.75;;;;;;;;;;5047210;28;20085;-75
2022/07/19 13:33:06;;;;;;;5.13;3.78;;;;;;;;;;5048477;28;20044;-76
2022/07/19 13:35:33;;;;;;;10.75;3.70;;;;;;;;;;5048183;28;20017;-77
2022/07/19 13:37:59;;;;;;;5.40;3.80;;;;;;;;;;5046723;28;20032;-75
2022/07/19 13:40:25;;;;;;;5.03;3.80;;;;;;;;;;5048204;28;20014;-75
2022/07/19 13:42:51;;;;;;;5.30;3.47;;;;;;;;;;5048054;28;20024;-78
2022/07/19 13:45:16;;;;;;;5.25;3.47;;;;;;;;;;5047957;28;20021;-78
2022/07/19 13:47:41;;;;;;;8.20;3.97;;;;;;;;;;5048180;28;20108;-78
2022/07/19 13:50:08;;;;;;;9.20;3.85;;;;;;;;;;5048257;28;20457;-78
2022/07/19 13:52:34;;;;;;;7.60;4.13;;;;;;;;;;5047983;28;20089;-79
2022/07/19 13:54:59;;;;;;;7.70;3.47;;;;;;;;;;5047931;28;20036;-76
2022/07/19 13:57:25;;;;;;;6.85;4.05;;;;;;;;;;5047911;28;20017;-77
2022/07/19 13:59:50;;;;;;;8.70;4.00;;;;;;;;;;5047828;28;20017;-76
2022/07/19 14:02:15;;;;;;;5.95;3.70;;;;;;;;;;5047607;28;20412;-75
2022/07/19 14:04:41;;;;;;;5.28;3.50;;;;;;;;;;5047933;28;20021;-77
2022/07/19 14:07:06;;;;;;;7.28;4.15;;;;;;;;;;5047529;28;20070;-74
2022/07/19 14:09:33;;;;;;;9.02;3.80;;;;;;;;;;5047661;28;20032;-75
2022/07/19 14:11:59;;;;;;;6.03;3.88;;;;;;;;;;5047766;28;20434;-73
2022/07/19 14:14:24;;;;;;;7.15;4.07;;;;;;;;;;5047647;28;20025;-73
2022/07/19 14:16:49;;;;;;;7.70;3.83;;;;;;;;;;5047396;28;20021;-73
2022/07/19 14:19:15;;;;;;;6.18;3.97;;;;;;;;;;5047596;28;20021;-73
2022/07/19 14:21:40;;;;;;;6.35;3.60;;;;;;;;;;5047218;28;20025;-74
2022/07/19 14:24:08;;;;;;;7.13;3.70;;;;;;;;;;5047875;28;20150;-74
2022/07/19 14:26:33;;;;;;;5.13;3.90;;;;;;;;;;5047294;28;20476;-73
2022/07/19 14:28:59;;;;;;;5.30;4.13;;;;;;;;;;5046237;28;20021;-73
2022/07/19 14:31:24;;;;;;;5.90;3.97;;;;;;;;;;5046097;28;20391;-74
2022/07/19 14:33:50;;;;;;;5.57;3.75;;;;;;;;;;5047341;28;20628;-77
2022/07/19 14:36:15;;;;;;;7.00;3.60;;;;;;;;;;5047108;28;20452;-75
2022/07/19 14:38:41;;;;;;;9.68;3.70;;;;;;;;;;5047241;28;20031;-75
2022/07/19 14:41:06;;;;;;;6.55;3.70;;;;;;;;;;5047208;28;20031;-72
2022/07/19 14:43:31;;;;;;;5.47;3.50;;;;;;;;;;5047101;28;20021;-74
2022/07/19 14:45:57;;;;;;;6.68;3.78;;;;;;;;;;5047046;28;20611;-72